Time;durP1;ratioP1;P1;durP2;ratioP2;P2;SDS_P1;SDS_P2;PMS_P1;PMS_P2;Temp;Humidity;BMP_temperature;BMP_pressure;BME280_temperature;BME280_humidity;BME280_pressure;Samples;Min_cycle;Max_cycle;Signal;HPM_P1;HPM_P2
2022/11/14 00:00:55;;;;;;;;;;;8.20;99.90;;;;;;5025579;28;19913;-68
2022/11/14 00:03:21;;;;;;;;;;;8.20;99.90;;;;;;5025756;28;19913;-68
2022/11/14 00:05:46;;;;;;;;;;;8.20;99.90;;;;;;5026741;28;19913;-70
2022/11/14 00:08:19;;;;;;;;;;;8.20;99.90;;;;;;5025616;28;19971;-68
2022/11/14 00:10:45;;;;;;;;;;;8.20;99.90;;;;;;5021868;28;19921;-67
2022/11/14 00:13:11;;;;;;;;;;;8.20;99.90;;;;;;5019867;28;20026;-70
2022/11/14 00:15:36;;;;;;;;;;;8.10;99.90;;;;;;5026566;28;19913;-70
2022/11/14 00:18:02;;;;;;;;;;;8.10;99.90;;;;;;5024455;28;19924;-68
2022/11/14 00:20:27;;;;;;;;;;;8.00;99.90;;;;;;5025025;28;20373;-69
2022/11/14 00:22:53;;;;;;;;;;;8.10;99.90;;;;;;5024620;28;20355;-68
2022/11/14 00:25:18;;;;;;;;;;;8.00;99.90;;;;;;5025157;28;19921;-69
2022/11/14 00:27:44;;;;;;;;;;;8.00;99.90;;;;;;5026820;28;19923;-69
2022/11/14 00:30:09;;;;;;;;;;;8.00;99.90;;;;;;5021550;28;19948;-68
2022/11/14 00:32:35;;;;;;;;;;;8.00;99.90;;;;;;5026071;28;19970;-68
2022/11/14 00:35:00;;;;;;;;;;;7.90;99.90;;;;;;5025479;28;19917;-69
2022/11/14 00:37:26;;;;;;;;;;;7.90;99.90;;;;;;5025335;28;19921;-68
2022/11/14 00:39:51;;;;;;;;;;;7.80;99.90;;;;;;5026038;28;19917;-69
2022/11/14 00:42:17;;;;;;;;;;;7.80;99.90;;;;;;5023727;28;19920;-68
2022/11/14 00:44:42;;;;;;;;;;;7.80;99.90;;;;;;5026310;28;19913;-68
2022/11/14 00:47:08;;;;;;;;;;;7.80;99.90;;;;;;5023577;28;20297;-67
2022/11/14 00:49:34;;;;;;;;;;;7.80;99.90;;;;;;5025972;28;20285;-69
2022/11/14 00:52:00;;;;;;;;;;;7.80;99.90;;;;;;5025127;28;19968;-68
2022/11/14 00:54:25;;;;;;;;;;;7.80;99.90;;;;;;5024022;28;19952;-68
2022/11/14 00:56:51;;;;;;;;;;;7.70;99.90;;;;;;5024613;28;19964;-68
2022/11/14 00:59:16;;;;;;;;;;;7.70;99.90;;;;;;5025194;28;19913;-68
2022/11/14 01:01:42;;;;;;;;;;;7.60;99.90;;;;;;5026472;28;19913;-70
2022/11/14 01:04:07;;;;;;;;;;;7.60;99.90;;;;;;5024376;28;19935;-69
2022/11/14 01:06:33;;;;;;;;;;;7.60;99.90;;;;;;5024328;28;19920;-67
2022/11/14 01:08:58;;;;;;;;;;;7.60;99.90;;;;;;5024655;28;19929;-68
2022/11/14 01:11:23;;;;;;;;;;;7.60;99.90;;;;;;5024963;28;20758;-68
2022/11/14 01:13:49;;;;;;;;;;;7.50;99.90;;;;;;5024029;28;19920;-68
2022/11/14 01:16:14;;;;;;;;;;;7.50;99.90;;;;;;5023654;28;19992;-68
2022/11/14 01:18:40;;;;;;;;;;;7.40;99.90;;;;;;5026029;28;20381;-66
2022/11/14 01:21:07;;;;;;;;;;;7.40;99.90;;;;;;5023634;28;19928;-67
2022/11/14 01:23:32;;;;;;;;;;;7.40;99.90;;;;;;5023641;28;19921;-68
2022/11/14 01:26:01;;;;;;;;;;;7.40;99.90;;;;;;5026016;28;19920;-69
2022/11/14 01:28:27;;;;;;;;;;;7.30;99.90;;;;;;5023544;28;19917;-68
2022/11/14 01:30:52;;;;;;;;;;;7.20;99.90;;;;;;5025685;28;19916;-68
2022/11/14 01:33:18;;;;;;;;;;;7.20;99.90;;;;;;5023226;28;20032;-69
2022/11/14 01:35:43;;;;;;;;;;;7.20;99.90;;;;;;5025596;28;19913;-69
2022/11/14 01:38:13;;;;;;;;;;;7.20;99.90;;;;;;5023809;28;20392;-67
2022/11/14 01:40:42;;;;;;;;;;;7.10;99.90;;;;;;5018075;28;19999;-68
2022/11/14 01:43:11;;;;;;;;;;;7.10;99.90;;;;;;5019510;28;20293;-67
2022/11/14 01:45:46;;;;;;;;;;;7.10;99.90;;;;;;5021586;28;19920;-69
2022/11/14 01:48:19;;;;;;;;;;;7.00;99.90;;;;;;5021326;28;20400;-68
2022/11/14 01:50:53;;;;;;;;;;;7.00;99.90;;;;;;5029559;28;19951;-68
2022/11/14 01:53:18;;;;;;;;;;;7.00;99.90;;;;;;5026738;28;19924;-68
2022/11/14 01:55:44;;;;;;;;;;;7.00;99.90;;;;;;5027365;28;20300;-69
2022/11/14 01:58:10;;;;;;;;;;;6.90;99.90;;;;;;5026589;28;19921;-67
2022/11/14 02:00:35;;;;;;;;;;;6.90;99.90;;;;;;5027967;28;19916;-67
2022/11/14 02:03:01;;;;;;;;;;;6.90;99.90;;;;;;5025024;28;19917;-68
2022/11/14 02:05:28;;;;;;;;;;;6.90;99.90;;;;;;5028623;28;19913;-68
2022/11/14 02:07:54;;;;;;;;;;;6.90;99.90;;;;;;5027678;28;20373;-69
2022/11/14 02:10:20;;;;;;;;;;;6.80;99.90;;;;;;5028172;28;19947;-69
2022/11/14 02:12:46;;;;;;;;;;;6.80;99.90;;;;;;5028425;28;19917;-68
2022/11/14 02:15:12;;;;;;;;;;;6.80;99.90;;;;;;5027394;28;20388;-69
2022/11/14 02:17:37;;;;;;;;;;;6.70;99.90;;;;;;5028781;28;20404;-68
2022/11/14 02:20:03;;;;;;;;;;;6.70;99.90;;;;;;5026203;28;19913;-68
2022/11/14 02:22:28;;;;;;;;;;;6.70;99.90;;;;;;5026903;28;19927;-68
2022/11/14 02:24:54;;;;;;;;;;;6.70;99.90;;;;;;5028261;28;20018;-67
2022/11/14 02:27:19;;;;;;;;;;;6.60;99.90;;;;;;5027596;28;20298;-68
2022/11/14 02:29:45;;;;;;;;;;;6.60;99.90;;;;;;5028247;28;19927;-68
2022/11/14 02:32:10;;;;;;;;;;;6.60;99.90;;;;;;5027095;28;19913;-68
2022/11/14 02:34:36;;;;;;;;;;;6.60;99.90;;;;;;5028038;28;20369;-68
2022/11/14 02:37:01;;;;;;;;;;;6.50;99.90;;;;;;5027487;28;19986;-68
2022/11/14 02:39:27;;;;;;;;;;;6.50;99.90;;;;;;5027800;28;20269;-69
2022/11/14 02:41:52;;;;;;;;;;;6.50;99.90;;;;;;5028213;28;19913;-69
2022/11/14 02:44:18;;;;;;;;;;;6.50;99.90;;;;;;5026610;28;19913;-71
2022/11/14 02:46:44;;;;;;;;;;;6.40;99.90;;;;;;5026651;28;19913;-68
2022/11/14 02:49:09;;;;;;;;;;;6.40;99.90;;;;;;5027210;28;20633;-69
2022/11/14 02:51:35;;;;;;;;;;;6.30;99.90;;;;;;5028646;28;20024;-68
2022/11/14 02:54:00;;;;;;;;;;;6.30;99.90;;;;;;5026960;28;20332;-70
2022/11/14 02:56:26;;;;;;;;;;;6.30;99.90;;;;;;5027863;28;19932;-67
2022/11/14 02:58:51;;;;;;;;;;;6.40;99.90;;;;;;5028075;28;19967;-68
2022/11/14 03:01:17;;;;;;;;;;;6.30;99.90;;;;;;5026274;28;19917;-69
2022/11/14 03:03:42;;;;;;;;;;;6.30;99.90;;;;;;5027358;28;19920;-67
2022/11/14 03:06:08;;;;;;;;;;;6.30;99.90;;;;;;5023659;28;19987;-68
2022/11/14 03:08:33;;;;;;;;;;;6.20;99.90;;;;;;5025198;28;19917;-68
2022/11/14 03:11:06;;;;;;;;;;;6.20;99.90;;;;;;5023722;28;19929;-68
2022/11/14 03:13:31;;;;;;;;;;;6.20;99.90;;;;;;5022486;28;19917;-68
2022/11/14 03:16:03;;;;;;;;;;;6.20;99.90;;;;;;5027724;28;19924;-67
2022/11/14 03:18:28;;;;;;;;;;;6.20;99.90;;;;;;5026950;28;19913;-68
2022/11/14 03:20:54;;;;;;;;;;;6.20;99.90;;;;;;5027491;28;19921;-68
2022/11/14 03:23:19;;;;;;;;;;;6.20;99.90;;;;;;5026692;28;19949;-68
2022/11/14 03:25:45;;;;;;;;;;;6.20;99.90;;;;;;5025930;28;20267;-68
2022/11/14 03:28:10;;;;;;;;;;;6.20;99.90;;;;;;5026244;28;19913;-68
2022/11/14 03:30:36;;;;;;;;;;;6.20;99.90;;;;;;5027881;28;20011;-67
2022/11/14 03:33:01;;;;;;;;;;;6.20;99.90;;;;;;5026698;28;19920;-71
2022/11/14 03:35:27;;;;;;;;;;;6.20;99.90;;;;;;5025507;28;19917;-68
2022/11/14 03:37:52;;;;;;;;;;;6.20;99.90;;;;;;5027396;28;19917;-68
2022/11/14 03:40:17;;;;;;;;;;;6.20;99.90;;;;;;5025210;28;20369;-68
2022/11/14 03:42:43;;;;;;;;;;;6.20;99.90;;;;;;5026920;28;19913;-68
2022/11/14 03:45:09;;;;;;;;;;;6.10;99.90;;;;;;5024547;28;19913;-68
2022/11/14 03:47:34;;;;;;;;;;;6.10;99.90;;;;;;5026013;28;20346;-69
2022/11/14 03:49:59;;;;;;;;;;;6.10;99.90;;;;;;5027278;28;19921;-68
2022/11/14 03:52:25;;;;;;;;;;;6.00;99.90;;;;;;5025822;28;19921;-67
2022/11/14 03:54:51;;;;;;;;;;;6.00;99.90;;;;;;5025480;28;19917;-69
2022/11/14 03:57:16;;;;;;;;;;;6.00;99.90;;;;;;5025706;28;20219;-66
2022/11/14 03:59:41;;;;;;;;;;;5.90;99.90;;;;;;5026553;28;20369;-67
2022/11/14 04:02:07;;;;;;;;;;;5.90;99.90;;;;;;5025809;28;19913;-68
2022/11/14 04:04:33;;;;;;;;;;;5.90;99.90;;;;;;5026670;28;19913;-68
2022/11/14 04:06:59;;;;;;;;;;;5.90;99.90;;;;;;5025795;28;19963;-68
2022/11/14 04:09:24;;;;;;;;;;;5.90;99.90;;;;;;5023882;28;19928;-68
2022/11/14 04:11:50;;;;;;;;;;;5.90;99.90;;;;;;5026458;28;19928;-69
2022/11/14 04:14:15;;;;;;;;;;;5.80;99.90;;;;;;5022786;28;19917;-67
2022/11/14 04:16:40;;;;;;;;;;;5.80;99.90;;;;;;5026574;28;19921;-68
2022/11/14 04:19:06;;;;;;;;;;;5.90;99.90;;;;;;5024883;28;20297;-69
2022/11/14 04:21:31;;;;;;;;;;;5.80;99.90;;;;;;5026525;28;19956;-68
2022/11/14 04:23:57;;;;;;;;;;;5.80;99.90;;;;;;5026820;28;19967;-68
2022/11/14 04:26:22;;;;;;;;;;;5.80;99.90;;;;;;5024710;28;19913;-68
2022/11/14 04:28:48;;;;;;;;;;;5.80;99.90;;;;;;5025543;28;20549;-68
2022/11/14 04:31:13;;;;;;;;;;;5.80;99.90;;;;;;5024525;28;20008;-68
2022/11/14 04:33:39;;;;;;;;;;;5.80;99.90;;;;;;5025571;28;19928;-68
2022/11/14 04:36:04;;;;;;;;;;;5.80;99.90;;;;;;5026151;28;20422;-68
2022/11/14 04:38:30;;;;;;;;;;;5.80;99.90;;;;;;5027161;28;19923;-68
2022/11/14 04:40:55;;;;;;;;;;;5.70;99.90;;;;;;5026106;28;19917;-68
2022/11/14 04:43:21;;;;;;;;;;;5.80;99.90;;;;;;5027029;28;19921;-67
2022/11/14 04:45:46;;;;;;;;;;;5.70;99.90;;;;;;5028155;28;19917;-68
2022/11/14 04:48:12;;;;;;;;;;;5.70;99.90;;;;;;5024923;28;19913;-68
2022/11/14 04:50:38;;;;;;;;;;;5.80;99.90;;;;;;5027182;28;20329;-68
2022/11/14 04:53:03;;;;;;;;;;;5.70;99.90;;;;;;5025760;28;19928;-68
2022/11/14 04:55:29;;;;;;;;;;;5.70;99.90;;;;;;5026500;28;19988;-67
2022/11/14 04:57:55;;;;;;;;;;;5.60;99.90;;;;;;5025193;28;19943;-68
2022/11/14 05:00:21;;;;;;;;;;;5.60;99.90;;;;;;5024799;28;19921;-68
2022/11/14 05:02:46;;;;;;;;;;;5.60;99.90;;;;;;5026494;28;20388;-68
2022/11/14 05:05:12;;;;;;;;;;;5.60;99.90;;;;;;5025371;28;20003;-67
2022/11/14 05:07:37;;;;;;;;;;;5.60;99.90;;;;;;5026639;28;20688;-69
2022/11/14 05:10:03;;;;;;;;;;;5.60;99.90;;;;;;5024017;28;20383;-68
2022/11/14 05:12:29;;;;;;;;;;;5.60;99.90;;;;;;5024697;28;20455;-69
2022/11/14 05:14:54;;;;;;;;;;;5.60;99.90;;;;;;5022840;28;19948;-68
2022/11/14 05:17:21;;;;;;;;;;;5.60;99.90;;;;;;5025391;28;19923;-67
2022/11/14 05:19:46;;;;;;;;;;;5.60;99.90;;;;;;5026257;28;19913;-68
2022/11/14 05:22:12;;;;;;;;;;;5.60;99.90;;;;;;5025209;28;19917;-66
2022/11/14 05:24:37;;;;;;;;;;;5.60;99.90;;;;;;5027866;28;19928;-67
2022/11/14 05:27:03;;;;;;;;;;;5.60;99.90;;;;;;5028738;28;20381;-67
2022/11/14 05:29:28;;;;;;;;;;;5.60;99.90;;;;;;5029550;28;19921;-67
2022/11/14 05:31:54;;;;;;;;;;;5.50;99.90;;;;;;5028720;28;19931;-68
2022/11/14 05:34:19;;;;;;;;;;;5.50;99.90;;;;;;5028174;28;19917;-67
2022/11/14 05:36:45;;;;;;;;;;;5.50;99.90;;;;;;5028379;28;19917;-67
2022/11/14 05:39:10;;;;;;;;;;;5.50;99.90;;;;;;5028388;28;20377;-65
2022/11/14 05:41:36;;;;;;;;;;;5.50;99.90;;;;;;5029327;28;19913;-67
2022/11/14 05:44:03;;;;;;;;;;;5.40;99.90;;;;;;5027733;28;20381;-72
2022/11/14 05:46:28;;;;;;;;;;;5.50;99.90;;;;;;5028108;28;19988;-66
2022/11/14 05:48:54;;;;;;;;;;;5.40;99.90;;;;;;5029394;28;19912;-67
2022/11/14 05:51:19;;;;;;;;;;;5.40;99.90;;;;;;5028484;28;20210;-67
2022/11/14 05:53:45;;;;;;;;;;;5.40;99.90;;;;;;5017462;28;19917;-66
2022/11/14 05:56:11;;;;;;;;;;;5.40;99.90;;;;;;5021065;28;19991;-67
2022/11/14 05:58:37;;;;;;;;;;;5.30;99.90;;;;;;5022746;28;19917;-68
2022/11/14 06:01:07;;;;;;;;;;;5.30;99.90;;;;;;5017808;28;20326;-67
2022/11/14 06:03:33;;;;;;;;;;;5.40;99.90;;;;;;5021143;28;19986;-67
2022/11/14 06:06:03;;;;;;;;;;;5.40;99.90;;;;;;5024538;28;19932;-67
2022/11/14 06:08:29;;;;;;;;;;;5.40;99.90;;;;;;5031020;28;20655;-67
2022/11/14 06:10:54;;;;;;;;;;;5.30;99.90;;;;;;5020835;28;19921;-66
2022/11/14 06:13:22;;;;;;;;;;;5.30;99.90;;;;;;5017171;28;19921;-66
2022/11/14 06:15:48;;;;;;;;;;;5.30;99.90;;;;;;5020068;28;19928;-67
2022/11/14 06:18:13;;;;;;;;;;;5.30;99.90;;;;;;5020507;28;19917;-67
2022/11/14 06:20:38;;;;;;;;;;;5.30;99.90;;;;;;5021094;28;19923;-67
2022/11/14 06:23:04;;;;;;;;;;;5.30;99.90;;;;;;5018963;28;19924;-67
2022/11/14 06:25:29;;;;;;;;;;;5.30;99.90;;;;;;5021456;28;20358;-67
2022/11/14 06:27:57;;;;;;;;;;;5.30;99.90;;;;;;5019750;28;20006;-67
2022/11/14 06:30:22;;;;;;;;;;;5.30;99.90;;;;;;5016095;28;19921;-67
2022/11/14 06:32:47;;;;;;;;;;;5.30;99.90;;;;;;5020449;28;20008;-67
2022/11/14 06:35:13;;;;;;;;;;;5.30;99.90;;;;;;5019699;28;19966;-68
2022/11/14 06:37:38;;;;;;;;;;;5.30;99.90;;;;;;5018919;28;20373;-68
2022/11/14 06:40:04;;;;;;;;;;;5.30;99.90;;;;;;5018455;28;19960;-66
2022/11/14 06:42:30;;;;;;;;;;;5.30;99.90;;;;;;5017322;28;20301;-67
2022/11/14 06:44:55;;;;;;;;;;;5.30;99.90;;;;;;5017206;28;19989;-66
2022/11/14 06:47:21;;;;;;;;;;;5.30;99.90;;;;;;5017784;28;19921;-67
2022/11/14 06:49:46;;;;;;;;;;;5.30;99.90;;;;;;5022525;28;19960;-67
2022/11/14 06:52:11;;;;;;;;;;;5.20;99.90;;;;;;5017000;28;20009;-67
2022/11/14 06:54:37;;;;;;;;;;;5.20;99.90;;;;;;5016587;28;19924;-67
2022/11/14 06:57:02;;;;;;;;;;;5.20;99.90;;;;;;5020388;28;20421;-68
2022/11/14 06:59:28;;;;;;;;;;;5.20;99.90;;;;;;5019403;28;20373;-66
2022/11/14 07:01:53;;;;;;;;;;;5.20;99.90;;;;;;5018880;28;19916;-67
2022/11/14 07:04:19;;;;;;;;;;;5.30;99.90;;;;;;5019930;28;19925;-67
2022/11/14 07:06:44;;;;;;;;;;;5.30;99.90;;;;;;5018825;28;20364;-68
2022/11/14 07:09:10;;;;;;;;;;;5.30;99.90;;;;;;5019120;28;19928;-67
2022/11/14 07:11:36;;;;;;;;;;;5.30;99.90;;;;;;5020393;28;19917;-65
2022/11/14 07:14:03;;;;;;;;;;;5.30;99.90;;;;;;5014982;28;20523;-69
2022/11/14 07:16:29;;;;;;;;;;;5.30;99.90;;;;;;5027361;28;19913;-66
2022/11/14 07:18:56;;;;;;;;;;;5.30;99.90;;;;;;5027547;28;19917;-66
2022/11/14 07:21:21;;;;;;;;;;;5.30;99.90;;;;;;5027240;28;20615;-67
2022/11/14 07:23:47;;;;;;;;;;;5.30;99.90;;;;;;5027674;28;19924;-66
2022/11/14 07:26:12;;;;;;;;;;;5.30;99.90;;;;;;5026709;28;20330;-67
2022/11/14 07:28:39;;;;;;;;;;;5.30;99.90;;;;;;5027875;28;19936;-67
2022/11/14 07:31:06;;;;;;;;;;;5.40;99.90;;;;;;5027030;28;19921;-67
2022/11/14 07:33:32;;;;;;;;;;;5.40;99.90;;;;;;5025532;28;20335;-68
2022/11/14 07:35:57;;;;;;;;;;;5.30;99.90;;;;;;5027899;28;19913;-67
2022/11/14 07:38:23;;;;;;;;;;;5.50;99.90;;;;;;5026692;28;19917;-67
2022/11/14 07:40:53;;;;;;;;;;;5.50;99.90;;;;;;5026258;28;19916;-67
2022/11/14 07:43:18;;;;;;;;;;;5.50;99.90;;;;;;5024913;28;20035;-68
2022/11/14 07:45:44;;;;;;;;;;;5.50;99.90;;;;;;5019379;28;20008;-67
2022/11/14 07:48:09;;;;;;;;;;;5.40;99.90;;;;;;5025633;28;19921;-67
2022/11/14 07:50:35;;;;;;;;;;;5.40;99.90;;;;;;5027924;28;20360;-68
2022/11/14 07:53:00;;;;;;;;;;;5.50;99.90;;;;;;5027024;28;19932;-67
2022/11/14 07:55:25;;;;;;;;;;;5.50;99.90;;;;;;5023493;28;19917;-67
2022/11/14 07:57:52;;;;;;;;;;;5.50;99.90;;;;;;5026424;28;19913;-67
2022/11/14 08:00:18;;;;;;;;;;;5.60;99.90;;;;;;5024878;28;19923;-68
2022/11/14 08:02:44;;;;;;;;;;;5.60;99.90;;;;;;5026815;28;19914;-68
2022/11/14 08:05:10;;;;;;;;;;;5.60;99.90;;;;;;5025301;28;19956;-67
2022/11/14 08:07:35;;;;;;;;;;;5.60;99.90;;;;;;5026245;28;20644;-67
2022/11/14 08:10:01;;;;;;;;;;;5.60;99.90;;;;;;5026794;28;19924;-68
2022/11/14 08:12:26;;;;;;;;;;;5.60;99.90;;;;;;5024243;28;19923;-67
2022/11/14 08:14:51;;;;;;;;;;;5.70;99.90;;;;;;5025021;28;19917;-69
2022/11/14 08:17:18;;;;;;;;;;;5.70;99.90;;;;;;5025995;28;19967;-68
2022/11/14 08:19:44;;;;;;;;;;;5.80;99.90;;;;;;5021151;28;20043;-67
2022/11/14 08:22:09;;;;;;;;;;;5.80;99.90;;;;;;5025876;28;20575;-68
2022/11/14 08:24:35;;;;;;;;;;;6.00;99.90;;;;;;5022881;28;19979;-69
2022/11/14 08:27:00;;;;;;;;;;;6.00;99.90;;;;;;5023816;28;19952;-67
2022/11/14 08:29:26;;;;;;;;;;;6.10;99.90;;;;;;5024596;28;20376;-68
2022/11/14 08:31:51;;;;;;;;;;;6.20;99.90;;;;;;5023474;28;19935;-67
2022/11/14 08:34:17;;;;;;;;;;;6.20;99.90;;;;;;5023037;28;19975;-67
2022/11/14 08:36:42;;;;;;;;;;;6.30;99.90;;;;;;5023950;28;19913;-68
2022/11/14 08:39:08;;;;;;;;;;;6.30;99.90;;;;;;5024918;28;20029;-67
2022/11/14 08:41:33;;;;;;;;;;;6.40;99.90;;;;;;5026176;28;19917;-67
2022/11/14 08:43:58;;;;;;;;;;;6.40;99.90;;;;;;5025777;28;20384;-68
2022/11/14 08:46:24;;;;;;;;;;;6.50;99.90;;;;;;5025553;28;19917;-68
2022/11/14 08:48:49;;;;;;;;;;;6.60;99.90;;;;;;5026660;28;19917;-69
2022/11/14 08:51:15;;;;;;;;;;;6.70;99.90;;;;;;5024161;28;19921;-68
2022/11/14 08:53:40;;;;;;;;;;;6.70;99.90;;;;;;5024551;28;19925;-67
2022/11/14 08:56:08;;;;;;;;;;;6.70;99.90;;;;;;5025077;28;19931;-68
2022/11/14 08:58:33;;;;;;;;;;;6.80;99.90;;;;;;5025268;28;19917;-68
2022/11/14 09:01:00;;;;;;;;;;;6.80;99.90;;;;;;5030086;28;19917;-66
2022/11/14 09:03:25;;;;;;;;;;;6.80;99.90;;;;;;5027760;28;20058;-68
2022/11/14 09:05:51;;;;;;;;;;;6.90;99.90;;;;;;5029949;28;19952;-69
2022/11/14 09:08:16;;;;;;;;;;;6.90;99.90;;;;;;5023208;28;19917;-68
2022/11/14 09:10:42;;;;;;;;;;;7.00;99.90;;;;;;5022348;28;19920;-68
2022/11/14 09:13:07;;;;;;;;;;;7.00;99.90;;;;;;5024628;28;19923;-67
2022/11/14 09:15:33;;;;;;;;;;;7.10;99.90;;;;;;5027713;28;20361;-68
2022/11/14 09:17:58;;;;;;;;;;;7.10;99.90;;;;;;5029384;28;19916;-67
2022/11/14 09:20:25;;;;;;;;;;;7.20;99.90;;;;;;5028909;28;20321;-67
2022/11/14 09:22:53;;;;;;;;;;;7.30;99.90;;;;;;5029587;28;19982;-67
2022/11/14 09:25:20;;;;;;;;;;;7.30;99.90;;;;;;5027888;28;19917;-68
2022/11/14 09:27:46;;;;;;;;;;;7.30;99.90;;;;;;5026449;28;19924;-68
2022/11/14 09:30:12;;;;;;;;;;;7.40;99.90;;;;;;5028901;28;19917;-68
2022/11/14 09:32:38;;;;;;;;;;;7.40;99.90;;;;;;5028227;28;19949;-68
2022/11/14 09:35:03;;;;;;;;;;;7.40;99.90;;;;;;5026925;28;20001;-68
2022/11/14 09:37:29;;;;;;;;;;;7.50;99.90;;;;;;5029686;28;20282;-66
2022/11/14 09:39:54;;;;;;;;;;;7.50;99.90;;;;;;5029845;28;20282;-69
2022/11/14 09:42:33;;;;;;;;;;;7.60;99.90;;;;;;5027349;28;19920;-66
2022/11/14 09:45:03;;;;;;;;;;;7.60;99.90;;;;;;5029212;28;20446;-67
2022/11/14 09:47:41;;;;;;;;;;;7.60;99.90;;;;;;5029221;28;20024;-68
2022/11/14 09:50:15;;;;;;;;;;;7.70;99.90;;;;;;5028808;28;19967;-68
2022/11/14 09:52:45;;;;;;;;;;;7.70;99.90;;;;;;5025778;28;19917;-67
2022/11/14 09:55:12;;;;;;;;;;;7.80;99.90;;;;;;5023024;28;19967;-69
2022/11/14 09:57:38;;;;;;;;;;;7.90;99.90;;;;;;5025128;28;19966;-68
2022/11/14 10:00:17;;;;;;;;;;;7.80;99.90;;;;;;5026839;28;19916;-69
2022/11/14 10:02:43;;;;;;;;;;;7.90;99.90;;;;;;5024230;28;19917;-68
2022/11/14 10:05:12;;;;;;;;;;;8.00;99.90;;;;;;5026727;28;19971;-68
2022/11/14 10:07:37;;;;;;;;;;;8.00;99.90;;;;;;5025135;28;19913;-68
2022/11/14 10:10:15;;;;;;;;;;;8.00;99.90;;;;;;5027333;28;20642;-73
2022/11/14 10:13:03;;;;;;;;;;;8.10;99.90;;;;;;5025340;28;19967;-68
2022/11/14 10:15:29;;;;;;;;;;;8.10;99.90;;;;;;5017866;28;19924;-69
2022/11/14 10:18:00;;;;;;;;;;;8.10;99.90;;;;;;5027697;28;19916;-70
2022/11/14 10:20:31;;;;;;;;;;;8.10;99.90;;;;;;5027723;28;20315;-69
2022/11/14 10:23:12;;;;;;;;;;;8.20;99.90;;;;;;5028135;28;19917;-67
2022/11/14 10:25:48;;;;;;;;;;;8.30;99.90;;;;;;5023394;28;19917;-69
2022/11/14 10:28:32;;;;;;;;;;;8.40;99.90;;;;;;5024281;28;19944;-67
2022/11/14 10:31:04;;;;;;;;;;;8.40;99.90;;;;;;5026667;28;19932;-68
2022/11/14 10:33:48;;;;;;;;;;;8.40;99.90;;;;;;5025633;28;19913;-68
2022/11/14 10:36:14;;;;;;;;;;;8.40;99.90;;;;;;5024910;28;19917;-69
2022/11/14 10:38:46;;;;;;;;;;;8.50;99.90;;;;;;5028762;28;20388;-70
2022/11/14 10:41:11;;;;;;;;;;;8.50;99.90;;;;;;5023853;28;20006;-67
2022/11/14 10:43:46;;;;;;;;;;;8.60;99.90;;;;;;5026145;28;19952;-69
2022/11/14 10:46:12;;;;;;;;;;;8.70;99.90;;;;;;5022639;28;20284;-67
2022/11/14 10:48:39;;;;;;;;;;;8.80;99.90;;;;;;5026000;28;19913;-68
2022/11/14 10:51:12;;;;;;;;;;;8.90;99.90;;;;;;5022988;28;19944;-71
2022/11/14 10:53:45;;;;;;;;;;;9.00;99.90;;;;;;5022298;28;19940;-69
2022/11/14 10:56:11;;;;;;;;;;;9.10;99.90;;;;;;5024004;28;19924;-66
2022/11/14 10:58:37;;;;;;;;;;;9.10;99.90;;;;;;5028242;28;20067;-67
2022/11/14 11:01:21;;;;;;;;;;;9.10;99.90;;;;;;5028072;28;19995;-68
2022/11/14 11:03:47;;;;;;;;;;;9.10;99.90;;;;;;5023382;28;19913;-68
2022/11/14 11:06:25;;;;;;;;;;;9.20;99.90;;;;;;5027100;28;19975;-68
2022/11/14 11:11:37;;;;;;;;;;;9.40;99.90;;;;;;5023387;28;19975;-69
2022/11/14 11:14:03;;;;;;;;;;;9.40;99.90;;;;;;5021563;28;19971;-67
2022/11/14 11:16:28;;;;;;;;;;;9.50;99.90;;;;;;5027166;28;19917;-67
2022/11/14 11:19:12;;;;;;;;;;;9.50;99.90;;;;;;5026854;28;19974;-68
2022/11/14 11:21:48;;;;;;;;;;;9.40;99.90;;;;;;5023155;28;19921;-70
2022/11/14 11:24:29;;;;;;;;;;;9.50;99.90;;;;;;5024686;28;20352;-68
2022/11/14 11:27:14;;;;;;;;;;;9.40;99.90;;;;;;5026003;28;19952;-68
2022/11/14 11:29:40;;;;;;;;;;;9.40;99.90;;;;;;5023890;28;19920;-68
2022/11/14 11:32:06;;;;;;;;;;;9.40;99.90;;;;;;5026961;28;19920;-68
2022/11/14 11:34:32;;;;;;;;;;;9.40;99.90;;;;;;5023079;28;19963;-70
2022/11/14 11:37:18;;;;;;;;;;;9.30;99.90;;;;;;5027654;28;19917;-67
2022/11/14 11:39:47;;;;;;;;;;;9.30;99.90;;;;;;5024773;28;19963;-68
2022/11/14 11:42:15;;;;;;;;;;;9.40;99.90;;;;;;5026546;28;19917;-68
2022/11/14 11:44:44;;;;;;;;;;;9.30;99.90;;;;;;5027072;28;19917;-68
2022/11/14 11:47:12;;;;;;;;;;;9.40;99.90;;;;;;5026628;28;19917;-70
2022/11/14 11:49:45;;;;;;;;;;;9.30;99.90;;;;;;5027076;28;19995;-69
2022/11/14 11:52:22;;;;;;;;;;;9.30;99.90;;;;;;5026564;28;19916;-68
2022/11/14 11:54:54;;;;;;;;;;;9.30;99.90;;;;;;5025468;28;19921;-68
2022/11/14 11:57:23;;;;;;;;;;;9.30;99.90;;;;;;5025919;28;19913;-67
2022/11/14 11:59:51;;;;;;;;;;;9.30;99.90;;;;;;5025125;28;19921;-69
2022/11/14 12:02:24;;;;;;;;;;;9.30;99.90;;;;;;5026185;28;20280;-67
2022/11/14 12:04:50;;;;;;;;;;;9.30;99.90;;;;;;5024905;28;19919;-68
2022/11/14 12:07:16;;;;;;;;;;;9.40;99.90;;;;;;5026364;28;20330;-67
2022/11/14 12:09:41;;;;;;;;;;;9.40;99.90;;;;;;5027141;28;20004;-68
2022/11/14 12:12:13;;;;;;;;;;;9.40;99.90;;;;;;5026475;28;19982;-67
2022/11/14 12:14:48;;;;;;;;;;;9.40;99.90;;;;;;5024762;28;20269;-68
2022/11/14 12:17:30;;;;;;;;;;;9.40;99.90;;;;;;5024306;28;20352;-69
2022/11/14 12:20:19;;;;;;;;;;;9.40;99.90;;;;;;5027056;28;19913;-68
2022/11/14 12:23:04;;;;;;;;;;;9.40;99.90;;;;;;5024059;28;19960;-68
2022/11/14 12:25:30;;;;;;;;;;;9.40;99.90;;;;;;5021979;28;19956;-67
2022/11/14 12:28:04;;;;;;;;;;;9.30;99.90;;;;;;5024430;28;20018;-69
2022/11/14 12:30:31;;;;;;;;;;;9.40;99.90;;;;;;5021852;28;19965;-67
2022/11/14 12:33:02;;;;;;;;;;;9.50;99.90;;;;;;5025638;28;19939;-68
2022/11/14 12:35:32;;;;;;;;;;;9.50;99.90;;;;;;5017427;28;19913;-68
2022/11/14 12:37:58;;;;;;;;;;;9.40;99.90;;;;;;5024802;28;19917;-69
2022/11/14 12:40:27;;;;;;;;;;;9.40;99.90;;;;;;5025608;28;19921;-68
2022/11/14 12:42:53;;;;;;;;;;;9.40;99.90;;;;;;5025845;28;19921;-70
2022/11/14 12:45:37;;;;;;;;;;;9.40;99.90;;;;;;5025355;28;20004;-68
2022/11/14 12:48:21;;;;;;;;;;;9.40;99.90;;;;;;5023156;28;19952;-68
2022/11/14 12:50:47;;;;;;;;;;;9.40;99.90;;;;;;5023945;28;19967;-69
2022/11/14 12:53:37;;;;;;;;;;;9.40;99.90;;;;;;5023906;28;19917;-68
2022/11/14 12:56:05;;;;;;;;;;;9.50;99.90;;;;;;5023613;28;20263;-68
2022/11/14 12:58:41;;;;;;;;;;;9.60;99.90;;;;;;5026351;28;20008;-68
2022/11/14 13:01:19;;;;;;;;;;;9.60;99.90;;;;;;5021274;28;19920;-67
2022/11/14 13:03:50;;;;;;;;;;;9.60;99.90;;;;;;5025731;28;20746;-68
2022/11/14 13:06:16;;;;;;;;;;;9.50;99.90;;;;;;5025588;28;19913;-68
2022/11/14 13:08:41;;;;;;;;;;;9.50;99.90;;;;;;5024964;28;19917;-68
2022/11/14 13:23:26;;;;;;;;;;;9.50;99.90;;;;;;5022976;28;20005;-69
2022/11/14 13:26:10;;;;;;;;;;;9.40;99.90;;;;;;5024176;28;20304;-66
2022/11/14 13:28:46;;;;;;;;;;;9.40;99.90;;;;;;5022424;28;19924;-66
2022/11/14 13:31:15;;;;;;;;;;;9.30;99.90;;;;;;5023241;28;20408;-67
2022/11/14 13:33:44;;;;;;;;;;;9.20;99.90;;;;;;5025312;28;19924;-67
2022/11/14 13:36:15;;;;;;;;;;;9.20;99.90;;;;;;5023931;28;19957;-68
2022/11/14 13:38:41;;;;;;;;;;;9.10;99.90;;;;;;5025833;28;19921;-68
2022/11/14 13:41:20;;;;;;;;;;;9.00;99.90;;;;;;5024838;28;20357;-68
2022/11/14 13:43:48;;;;;;;;;;;9.00;99.90;;;;;;5024787;28;19916;-68
2022/11/14 13:46:30;;;;;;;;;;;9.00;99.90;;;;;;5027733;28;20003;-67
2022/11/14 13:48:59;;;;;;;;;;;8.90;99.90;;;;;;5025717;28;19920;-67
2022/11/14 13:51:25;;;;;;;;;;;8.90;99.90;;;;;;5024526;28;19952;-69
2022/11/14 13:53:50;;;;;;;;;;;8.90;99.90;;;;;;5026850;28;20369;-68
2022/11/14 13:56:16;;;;;;;;;;;8.80;99.90;;;;;;5027905;28;20361;-67
2022/11/14 13:58:51;;;;;;;;;;;8.70;99.90;;;;;;5029389;28;20423;-68
2022/11/14 14:01:29;;;;;;;;;;;8.70;99.90;;;;;;5028496;28;19917;-69
2022/11/14 14:04:01;;;;;;;;;;;8.70;99.90;;;;;;5024811;28;20289;-67
2022/11/14 14:06:53;;;;;;;;;;;8.70;99.90;;;;;;5024676;28;20012;-66
2022/11/14 14:09:25;;;;;;;;;;;8.70;99.90;;;;;;5021900;28;20369;-69
2022/11/14 14:11:59;;;;;;;;;;;8.70;99.90;;;;;;5028984;28;20382;-68
2022/11/14 14:14:33;;;;;;;;;;;8.60;99.90;;;;;;5022345;28;19920;-69
2022/11/14 14:17:04;;;;;;;;;;;8.60;99.90;;;;;;5025360;28;19913;-66
2022/11/14 14:19:38;;;;;;;;;;;8.60;99.90;;;;;;5026519;28;20389;-68
2022/11/14 14:22:07;;;;;;;;;;;8.60;99.90;;;;;;5028349;28;19924;-69
2022/11/14 14:24:38;;;;;;;;;;;8.60;99.90;;;;;;5026245;28;19999;-69
2022/11/14 14:27:07;;;;;;;;;;;8.60;99.90;;;;;;5028286;28;20004;-69
2022/11/14 14:29:46;;;;;;;;;;;8.60;99.90;;;;;;5027938;28;19923;-69
2022/11/14 14:32:13;;;;;;;;;;;8.50;99.90;;;;;;5026800;28;20027;-67
2022/11/14 14:34:40;;;;;;;;;;;8.50;99.90;;;;;;5028032;28;19913;-68
2022/11/14 14:37:15;;;;;;;;;;;8.40;99.90;;;;;;5027881;28;19970;-68
2022/11/14 14:39:53;;;;;;;;;;;8.40;99.90;;;;;;5027386;28;20005;-66
2022/11/14 14:42:20;;;;;;;;;;;8.40;99.90;;;;;;5027498;28;20490;-68
2022/11/14 14:44:47;;;;;;;;;;;8.40;99.90;;;;;;5028010;28;19917;-67
2022/11/14 14:47:31;;;;;;;;;;;8.60;99.90;;;;;;5026554;28;20016;-66
2022/11/14 14:49:57;;;;;;;;;;;8.50;99.90;;;;;;5025421;28;19925;-68